sensor_id;sensor_type;location;lat;lon;timestamp;P1;durP1;ratioP1;P2;durP2;ratioP2
20589;SDS011;10453;50.810;12.540;2023-11-22T00:03:46;37.38;;;19.27;;
20589;SDS011;10453;50.810;12.540;2023-11-22T00:08:03;34.37;;;19.10;;
20589;SDS011;10453;50.810;12.540;2023-11-22T00:12:21;39.40;;;19.58;;
20589;SDS011;10453;50.810;12.540;2023-11-22T00:20:58;59.13;;;25.38;;
20589;SDS011;10453;50.810;12.540;2023-11-22T00:25:16;63.78;;;26.67;;
20589;SDS011;10453;50.810;12.540;2023-11-22T00:29:35;64.63;;;26.85;;
20589;SDS011;10453;50.810;12.540;2023-11-22T00:33:52;69.68;;;28.58;;
20589;SDS011;10453;50.810;12.540;2023-11-22T00:38:09;77.57;;;28.90;;
20589;SDS011;10453;50.810;12.540;2023-11-22T00:42:29;72.50;;;29.33;;
20589;SDS011;10453;50.810;12.540;2023-11-22T00:46:47;68.63;;;28.10;;
20589;SDS011;10453;50.810;12.540;2023-11-22T00:51:04;73.47;;;28.77;;
20589;SDS011;10453;50.810;12.540;2023-11-22T00:55:25;125.30;;;31.50;;
20589;SDS011;10453;50.810;12.540;2023-11-22T00:59:43;94.63;;;29.48;;
20589;SDS011;10453;50.810;12.540;2023-11-22T01:04:01;68.03;;;27.30;;
20589;SDS011;10453;50.810;12.540;2023-11-22T01:08:18;114.50;;;29.63;;
20589;SDS011;10453;50.810;12.540;2023-11-22T01:12:36;78.82;;;28.23;;
20589;SDS011;10453;50.810;12.540;2023-11-22T01:16:53;72.87;;;26.87;;
20589;SDS011;10453;50.810;12.540;2023-11-22T01:21:11;57.30;;;24.77;;
20589;SDS011;10453;50.810;12.540;2023-11-22T01:29:46;60.45;;;22.65;;
20589;SDS011;10453;50.810;12.540;2023-11-22T01:34:03;54.53;;;21.95;;
20589;SDS011;10453;50.810;12.540;2023-11-22T01:38:23;63.55;;;23.83;;
20589;SDS011;10453;50.810;12.540;2023-11-22T01:42:42;59.33;;;23.17;;
20589;SDS011;10453;50.810;12.540;2023-11-22T01:46:59;69.90;;;23.80;;
20589;SDS011;10453;50.810;12.540;2023-11-22T01:51:17;90.40;;;26.25;;
20589;SDS011;10453;50.810;12.540;2023-11-22T01:55:35;67.55;;;24.52;;
20589;SDS011;10453;50.810;12.540;2023-11-22T01:59:55;77.93;;;24.67;;
20589;SDS011;10453;50.810;12.540;2023-11-22T02:04:13;48.17;;;22.00;;
20589;SDS011;10453;50.810;12.540;2023-11-22T02:08:31;40.75;;;20.42;;
20589;SDS011;10453;50.810;12.540;2023-11-22T02:12:48;47.67;;;21.50;;
20589;SDS011;10453;50.810;12.540;2023-11-22T02:17:06;43.90;;;19.43;;
20589;SDS011;10453;50.810;12.540;2023-11-22T02:21:23;31.10;;;16.40;;
20589;SDS011;10453;50.810;12.540;2023-11-22T02:25:41;38.20;;;17.80;;
20589;SDS011;10453;50.810;12.540;2023-11-22T02:29:58;31.33;;;15.93;;
20589;SDS011;10453;50.810;12.540;2023-11-22T02:34:16;36.17;;;16.70;;
20589;SDS011;10453;50.810;12.540;2023-11-22T02:38:33;32.00;;;14.83;;
20589;SDS011;10453;50.810;12.540;2023-11-22T02:42:52;32.50;;;16.70;;
20589;SDS011;10453;50.810;12.540;2023-11-22T02:51:28;27.55;;;14.15;;
20589;SDS011;10453;50.810;12.540;2023-11-22T02:55:45;29.05;;;14.25;;
20589;SDS011;10453;50.810;12.540;2023-11-22T03:00:03;26.42;;;14.43;;
20589;SDS011;10453;50.810;12.540;2023-11-22T03:04:21;29.88;;;14.82;;
20589;SDS011;10453;50.810;12.540;2023-11-22T03:08:39;38.65;;;16.95;;
20589;SDS011;10453;50.810;12.540;2023-11-22T03:12:56;24.40;;;13.10;;
20589;SDS011;10453;50.810;12.540;2023-11-22T03:17:17;24.38;;;13.27;;
20589;SDS011;10453;50.810;12.540;2023-11-22T03:21:35;32.00;;;14.20;;
20589;SDS011;10453;50.810;12.540;2023-11-22T03:25:52;24.48;;;12.70;;
20589;SDS011;10453;50.810;12.540;2023-11-22T03:30:10;24.30;;;13.63;;
20589;SDS011;10453;50.810;12.540;2023-11-22T03:34:29;21.15;;;11.85;;
20589;SDS011;10453;50.810;12.540;2023-11-22T03:38:46;21.70;;;12.33;;
20589;SDS011;10453;50.810;12.540;2023-11-22T03:43:04;22.57;;;12.60;;
20589;SDS011;10453;50.810;12.540;2023-11-22T03:47:22;26.10;;;13.32;;
20589;SDS011;10453;50.810;12.540;2023-11-22T03:51:41;27.23;;;15.07;;
20589;SDS011;10453;50.810;12.540;2023-11-22T03:56:00;21.90;;;12.80;;
20589;SDS011;10453;50.810;12.540;2023-11-22T04:00:20;31.92;;;16.05;;
20589;SDS011;10453;50.810;12.540;2023-11-22T04:08:56;22.55;;;12.13;;
20589;SDS011;10453;50.810;12.540;2023-11-22T04:13:15;29.17;;;14.70;;
20589;SDS011;10453;50.810;12.540;2023-11-22T04:17:33;22.40;;;11.73;;
20589;SDS011;10453;50.810;12.540;2023-11-22T04:21:55;22.80;;;12.52;;
20589;SDS011;10453;50.810;12.540;2023-11-22T04:30:30;23.77;;;12.80;;
20589;SDS011;10453;50.810;12.540;2023-11-22T04:34:47;26.13;;;13.90;;
20589;SDS011;10453;50.810;12.540;2023-11-22T04:39:05;28.67;;;16.17;;
20589;SDS011;10453;50.810;12.540;2023-11-22T04:43:27;23.42;;;13.38;;
20589;SDS011;10453;50.810;12.540;2023-11-22T04:47:45;26.80;;;14.37;;
20589;SDS011;10453;50.810;12.540;2023-11-22T04:52:02;29.30;;;15.07;;
20589;SDS011;10453;50.810;12.540;2023-11-22T04:56:20;26.38;;;14.57;;
20589;SDS011;10453;50.810;12.540;2023-11-22T05:00:38;28.10;;;15.20;;
20589;SDS011;10453;50.810;12.540;2023-11-22T05:04:55;28.70;;;16.77;;
20589;SDS011;10453;50.810;12.540;2023-11-22T05:09:17;33.20;;;16.35;;
20589;SDS011;10453;50.810;12.540;2023-11-22T05:13:35;29.17;;;16.33;;
20589;SDS011;10453;50.810;12.540;2023-11-22T05:17:55;34.78;;;17.63;;
20589;SDS011;10453;50.810;12.540;2023-11-22T05:22:13;33.65;;;17.40;;
20589;SDS011;10453;50.810;12.540;2023-11-22T05:26:30;35.72;;;17.98;;
20589;SDS011;10453;50.810;12.540;2023-11-22T05:30:48;30.73;;;17.42;;
20589;SDS011;10453;50.810;12.540;2023-11-22T05:35:05;27.70;;;15.75;;
20589;SDS011;10453;50.810;12.540;2023-11-22T05:39:27;32.08;;;17.48;;
20589;SDS011;10453;50.810;12.540;2023-11-22T05:43:45;33.67;;;17.77;;
20589;SDS011;10453;50.810;12.540;2023-11-22T05:48:03;30.35;;;16.73;;
20589;SDS011;10453;50.810;12.540;2023-11-22T05:56:40;31.92;;;16.00;;
20589;SDS011;10453;50.810;12.540;2023-11-22T06:00:58;31.55;;;16.10;;
20589;SDS011;10453;50.810;12.540;2023-11-22T06:05:15;33.33;;;17.87;;
20589;SDS011;10453;50.810;12.540;2023-11-22T06:09:33;35.97;;;17.52;;
20589;SDS011;10453;50.810;12.540;2023-11-22T06:13:51;38.35;;;19.35;;
20589;SDS011;10453;50.810;12.540;2023-11-22T06:18:09;33.15;;;18.10;;
20589;SDS011;10453;50.810;12.540;2023-11-22T06:22:26;34.13;;;17.95;;
20589;SDS011;10453;50.810;12.540;2023-11-22T06:26:44;42.38;;;19.42;;
20589;SDS011;10453;50.810;12.540;2023-11-22T06:31:04;40.08;;;18.73;;
20589;SDS011;10453;50.810;12.540;2023-11-22T06:35:22;32.23;;;17.30;;
20589;SDS011;10453;50.810;12.540;2023-11-22T06:39:39;33.13;;;17.03;;
20589;SDS011;10453;50.810;12.540;2023-11-22T06:43:59;38.92;;;18.10;;
20589;SDS011;10453;50.810;12.540;2023-11-22T06:48:17;36.17;;;18.27;;
20589;SDS011;10453;50.810;12.540;2023-11-22T06:52:36;39.00;;;18.25;;
20589;SDS011;10453;50.810;12.540;2023-11-22T06:56:55;37.25;;;18.92;;
20589;SDS011;10453;50.810;12.540;2023-11-22T07:01:12;35.03;;;17.47;;
20589;SDS011;10453;50.810;12.540;2023-11-22T07:05:33;35.83;;;17.73;;
20589;SDS011;10453;50.810;12.540;2023-11-22T07:09:51;34.03;;;17.58;;
20589;SDS011;10453;50.810;12.540;2023-11-22T07:14:08;34.85;;;17.92;;
20589;SDS011;10453;50.810;12.540;2023-11-22T07:18:26;38.90;;;18.23;;
20589;SDS011;10453;50.810;12.540;2023-11-22T07:27:01;46.70;;;20.60;;
20589;SDS011;10453;50.810;12.540;2023-11-22T07:31:20;45.33;;;20.83;;
20589;SDS011;10453;50.810;12.540;2023-11-22T07:35:39;41.47;;;19.88;;
20589;SDS011;10453;50.810;12.540;2023-11-22T07:39:57;47.95;;;20.65;;
20589;SDS011;10453;50.810;12.540;2023-11-22T07:44:15;41.33;;;19.67;;
20589;SDS011;10453;50.810;12.540;2023-11-22T07:52:50;42.50;;;19.73;;
20589;SDS011;10453;50.810;12.540;2023-11-22T07:57:08;39.20;;;19.38;;
20589;SDS011;10453;50.810;12.540;2023-11-22T08:01:25;42.07;;;20.07;;
20589;SDS011;10453;50.810;12.540;2023-11-22T08:05:42;41.63;;;20.13;;
20589;SDS011;10453;50.810;12.540;2023-11-22T08:10:05;40.67;;;19.83;;
20589;SDS011;10453;50.810;12.540;2023-11-22T08:14:26;42.33;;;20.40;;
20589;SDS011;10453;50.810;12.540;2023-11-22T08:18:44;40.38;;;20.17;;
20589;SDS011;10453;50.810;12.540;2023-11-22T08:23:02;37.00;;;18.50;;
20589;SDS011;10453;50.810;12.540;2023-11-22T08:27:23;36.15;;;18.55;;
20589;SDS011;10453;50.810;12.540;2023-11-22T08:31:40;39.20;;;18.83;;
20589;SDS011;10453;50.810;12.540;2023-11-22T08:35:58;35.50;;;18.00;;
20589;SDS011;10453;50.810;12.540;2023-11-22T08:40:17;41.92;;;20.63;;
20589;SDS011;10453;50.810;12.540;2023-11-22T08:44:37;42.90;;;20.15;;
20589;SDS011;10453;50.810;12.540;2023-11-22T08:48:55;36.95;;;19.52;;
20589;SDS011;10453;50.810;12.540;2023-11-22T08:57:32;44.30;;;21.37;;
20589;SDS011;10453;50.810;12.540;2023-11-22T09:01:50;48.08;;;21.40;;
20589;SDS011;10453;50.810;12.540;2023-11-22T09:06:07;50.07;;;23.30;;
20589;SDS011;10453;50.810;12.540;2023-11-22T09:10:24;47.43;;;21.17;;
20589;SDS011;10453;50.810;12.540;2023-11-22T09:14:43;52.78;;;23.27;;
20589;SDS011;10453;50.810;12.540;2023-11-22T09:19:01;42.63;;;21.77;;
20589;SDS011;10453;50.810;12.540;2023-11-22T09:23:18;55.20;;;25.37;;
20589;SDS011;10453;50.810;12.540;2023-11-22T09:27:36;48.97;;;22.83;;
20589;SDS011;10453;50.810;12.540;2023-11-22T09:31:54;55.38;;;21.90;;
20589;SDS011;10453;50.810;12.540;2023-11-22T09:36:11;55.00;;;24.70;;
20589;SDS011;10453;50.810;12.540;2023-11-22T09:40:29;52.08;;;24.63;;
20589;SDS011;10453;50.810;12.540;2023-11-22T09:44:50;62.33;;;26.48;;
20589;SDS011;10453;50.810;12.540;2023-11-22T09:49:08;68.00;;;27.20;;
20589;SDS011;10453;50.810;12.540;2023-11-22T09:53:32;64.70;;;29.08;;
20589;SDS011;10453;50.810;12.540;2023-11-22T09:57:58;55.63;;;26.50;;
20589;SDS011;10453;50.810;12.540;2023-11-22T10:02:17;62.15;;;25.50;;
20589;SDS011;10453;50.810;12.540;2023-11-22T10:06:36;52.05;;;25.73;;
20589;SDS011;10453;50.810;12.540;2023-11-22T10:10:55;61.63;;;27.65;;
20589;SDS011;10453;50.810;12.540;2023-11-22T10:15:14;54.45;;;25.67;;
20589;SDS011;10453;50.810;12.540;2023-11-22T10:19:33;54.20;;;25.90;;
20589;SDS011;10453;50.810;12.540;2023-11-22T10:23:52;46.97;;;23.30;;
20589;SDS011;10453;50.810;12.540;2023-11-22T10:28:14;54.00;;;24.83;;
20589;SDS011;10453;50.810;12.540;2023-11-22T10:32:31;50.17;;;26.00;;
20589;SDS011;10453;50.810;12.540;2023-11-22T10:36:49;53.75;;;25.60;;
20589;SDS011;10453;50.810;12.540;2023-11-22T10:41:07;52.13;;;24.48;;
20589;SDS011;10453;50.810;12.540;2023-11-22T10:45:26;52.22;;;25.95;;
20589;SDS011;10453;50.810;12.540;2023-11-22T10:49:46;54.05;;;25.83;;
20589;SDS011;10453;50.810;12.540;2023-11-22T10:54:05;50.78;;;24.48;;
20589;SDS011;10453;50.810;12.540;2023-11-22T10:58:26;46.88;;;24.40;;
20589;SDS011;10453;50.810;12.540;2023-11-22T11:02:47;49.72;;;23.05;;
20589;SDS011;10453;50.810;12.540;2023-11-22T11:07:08;43.30;;;22.02;;
20589;SDS011;10453;50.810;12.540;2023-11-22T11:11:33;44.15;;;22.10;;
20589;SDS011;10453;50.810;12.540;2023-11-22T11:15:52;40.40;;;21.63;;
20589;SDS011;10453;50.810;12.540;2023-11-22T11:20:11;43.97;;;21.40;;
20589;SDS011;10453;50.810;12.540;2023-11-22T11:24:36;45.70;;;23.00;;
20589;SDS011;10453;50.810;12.540;2023-11-22T11:28:57;40.10;;;21.67;;
20589;SDS011;10453;50.810;12.540;2023-11-22T11:33:17;37.73;;;19.90;;
20589;SDS011;10453;50.810;12.540;2023-11-22T11:37:50;40.28;;;19.48;;
20589;SDS011;10453;50.810;12.540;2023-11-22T11:42:16;38.78;;;20.33;;
20589;SDS011;10453;50.810;12.540;2023-11-22T11:46:38;37.40;;;19.42;;
20589;SDS011;10453;50.810;12.540;2023-11-22T11:50:57;34.33;;;19.60;;
20589;SDS011;10453;50.810;12.540;2023-11-22T11:55:14;34.25;;;17.77;;
20589;SDS011;10453;50.810;12.540;2023-11-22T11:59:32;34.35;;;19.25;;
20589;SDS011;10453;50.810;12.540;2023-11-22T12:03:51;32.65;;;17.65;;
20589;SDS011;10453;50.810;12.540;2023-11-22T12:08:10;35.08;;;18.10;;
20589;SDS011;10453;50.810;12.540;2023-11-22T12:12:30;31.58;;;16.73;;
20589;SDS011;10453;50.810;12.540;2023-11-22T12:16:50;30.92;;;17.60;;
20589;SDS011;10453;50.810;12.540;2023-11-22T12:21:08;31.35;;;17.35;;
20589;SDS011;10453;50.810;12.540;2023-11-22T12:25:32;33.08;;;17.70;;
20589;SDS011;10453;50.810;12.540;2023-11-22T12:29:49;34.13;;;18.07;;
20589;SDS011;10453;50.810;12.540;2023-11-22T12:34:07;33.33;;;18.58;;
20589;SDS011;10453;50.810;12.540;2023-11-22T12:38:24;29.35;;;15.85;;
20589;SDS011;10453;50.810;12.540;2023-11-22T12:42:47;29.05;;;16.50;;
20589;SDS011;10453;50.810;12.540;2023-11-22T12:47:05;27.83;;;15.63;;
20589;SDS011;10453;50.810;12.540;2023-11-22T12:51:28;32.22;;;17.52;;
20589;SDS011;10453;50.810;12.540;2023-11-22T12:55:46;29.23;;;17.50;;
20589;SDS011;10453;50.810;12.540;2023-11-22T13:00:06;36.42;;;20.73;;
20589;SDS011;10453;50.810;12.540;2023-11-22T13:04:24;38.42;;;20.73;;
20589;SDS011;10453;50.810;12.540;2023-11-22T13:08:41;35.50;;;20.63;;
20589;SDS011;10453;50.810;12.540;2023-11-22T13:12:59;30.10;;;18.00;;
20589;SDS011;10453;50.810;12.540;2023-11-22T13:17:17;35.13;;;21.17;;
20589;SDS011;10453;50.810;12.540;2023-11-22T13:21:35;44.20;;;22.43;;
20589;SDS011;10453;50.810;12.540;2023-11-22T13:25:52;41.13;;;21.40;;
20589;SDS011;10453;50.810;12.540;2023-11-22T13:30:10;34.63;;;19.17;;
20589;SDS011;10453;50.810;12.540;2023-11-22T13:34:29;40.15;;;20.05;;
20589;SDS011;10453;50.810;12.540;2023-11-22T13:38:47;40.58;;;20.33;;
20589;SDS011;10453;50.810;12.540;2023-11-22T13:43:05;38.50;;;19.70;;
20589;SDS011;10453;50.810;12.540;2023-11-22T13:47:24;39.75;;;20.45;;
20589;SDS011;10453;50.810;12.540;2023-11-22T13:51:41;43.00;;;21.97;;
20589;SDS011;10453;50.810;12.540;2023-11-22T13:55:59;47.03;;;22.23;;
20589;SDS011;10453;50.810;12.540;2023-11-22T14:00:19;44.38;;;22.77;;
20589;SDS011;10453;50.810;12.540;2023-11-22T14:04:43;39.65;;;20.90;;
20589;SDS011;10453;50.810;12.540;2023-11-22T14:09:02;32.55;;;17.83;;
20589;SDS011;10453;50.810;12.540;2023-11-22T14:13:20;36.65;;;18.67;;
20589;SDS011;10453;50.810;12.540;2023-11-22T14:17:38;35.92;;;19.02;;
20589;SDS011;10453;50.810;12.540;2023-11-22T14:21:57;36.08;;;20.35;;
20589;SDS011;10453;50.810;12.540;2023-11-22T14:26:15;37.43;;;19.87;;
20589;SDS011;10453;50.810;12.540;2023-11-22T14:30:32;41.63;;;22.07;;
20589;SDS011;10453;50.810;12.540;2023-11-22T14:34:53;36.97;;;20.83;;
20589;SDS011;10453;50.810;12.540;2023-11-22T14:39:12;36.47;;;20.00;;
20589;SDS011;10453;50.810;12.540;2023-11-22T14:43:31;37.25;;;19.63;;
20589;SDS011;10453;50.810;12.540;2023-11-22T14:47:49;38.45;;;20.75;;
20589;SDS011;10453;50.810;12.540;2023-11-22T14:52:09;45.40;;;21.48;;
20589;SDS011;10453;50.810;12.540;2023-11-22T14:56:29;36.10;;;19.90;;
20589;SDS011;10453;50.810;12.540;2023-11-22T15:00:47;34.80;;;19.63;;
20589;SDS011;10453;50.810;12.540;2023-11-22T15:09:28;33.72;;;18.58;;
20589;SDS011;10453;50.810;12.540;2023-11-22T15:13:46;38.40;;;20.02;;
20589;SDS011;10453;50.810;12.540;2023-11-22T15:18:04;35.63;;;18.23;;
20589;SDS011;10453;50.810;12.540;2023-11-22T15:22:21;35.03;;;18.77;;
20589;SDS011;10453;50.810;12.540;2023-11-22T15:26:39;33.92;;;18.38;;
20589;SDS011;10453;50.810;12.540;2023-11-22T15:30:56;37.43;;;18.93;;
20589;SDS011;10453;50.810;12.540;2023-11-22T15:35:15;34.25;;;18.42;;
20589;SDS011;10453;50.810;12.540;2023-11-22T15:39:33;36.67;;;18.17;;
20589;SDS011;10453;50.810;12.540;2023-11-22T15:43:50;36.30;;;19.53;;
20589;SDS011;10453;50.810;12.540;2023-11-22T15:48:08;42.37;;;23.80;;
20589;SDS011;10453;50.810;12.540;2023-11-22T15:52:25;33.72;;;18.35;;
20589;SDS011;10453;50.810;12.540;2023-11-22T15:56:45;31.65;;;16.27;;
20589;SDS011;10453;50.810;12.540;2023-11-22T16:01:02;33.87;;;16.67;;
20589;SDS011;10453;50.810;12.540;2023-11-22T16:05:20;33.30;;;17.05;;
20589;SDS011;10453;50.810;12.540;2023-11-22T16:09:39;35.67;;;19.17;;
20589;SDS011;10453;50.810;12.540;2023-11-22T16:14:01;36.88;;;19.15;;
20589;SDS011;10453;50.810;12.540;2023-11-22T16:18:21;28.98;;;15.80;;
20589;SDS011;10453;50.810;12.540;2023-11-22T16:27:07;35.60;;;16.55;;
20589;SDS011;10453;50.810;12.540;2023-11-22T16:31:24;33.27;;;17.17;;
20589;SDS011;10453;50.810;12.540;2023-11-22T16:35:43;44.50;;;22.63;;
20589;SDS011;10453;50.810;12.540;2023-11-22T16:40:00;42.37;;;21.50;;
20589;SDS011;10453;50.810;12.540;2023-11-22T16:44:25;40.88;;;21.67;;
20589;SDS011;10453;50.810;12.540;2023-11-22T16:48:43;36.47;;;22.40;;
20589;SDS011;10453;50.810;12.540;2023-11-22T16:53:00;47.92;;;29.08;;
20589;SDS011;10453;50.810;12.540;2023-11-22T16:57:18;43.70;;;24.97;;
20589;SDS011;10453;50.810;12.540;2023-11-22T17:01:36;28.65;;;15.80;;
20589;SDS011;10453;50.810;12.540;2023-11-22T17:05:55;32.65;;;19.52;;
20589;SDS011;10453;50.810;12.540;2023-11-22T17:10:12;31.17;;;19.77;;
20589;SDS011;10453;50.810;12.540;2023-11-22T17:14:31;29.00;;;17.15;;
20589;SDS011;10453;50.810;12.540;2023-11-22T17:18:48;30.52;;;16.65;;
20589;SDS011;10453;50.810;12.540;2023-11-22T17:23:06;27.98;;;14.55;;
20589;SDS011;10453;50.810;12.540;2023-11-22T17:27:24;38.17;;;21.30;;
20589;SDS011;10453;50.810;12.540;2023-11-22T17:31:41;34.10;;;20.65;;
20589;SDS011;10453;50.810;12.540;2023-11-22T17:35:59;28.65;;;16.33;;
20589;SDS011;10453;50.810;12.540;2023-11-22T17:40:18;32.90;;;18.85;;
20589;SDS011;10453;50.810;12.540;2023-11-22T17:44:36;31.05;;;16.17;;
20589;SDS011;10453;50.810;12.540;2023-11-22T17:48:54;29.20;;;16.37;;
20589;SDS011;10453;50.810;12.540;2023-11-22T17:53:16;30.40;;;16.83;;
20589;SDS011;10453;50.810;12.540;2023-11-22T17:57:34;31.42;;;15.98;;
20589;SDS011;10453;50.810;12.540;2023-11-22T18:01:54;27.58;;;16.73;;
20589;SDS011;10453;50.810;12.540;2023-11-22T18:06:11;32.40;;;17.70;;
20589;SDS011;10453;50.810;12.540;2023-11-22T18:10:31;29.25;;;16.50;;
20589;SDS011;10453;50.810;12.540;2023-11-22T18:15:00;30.02;;;16.10;;
20589;SDS011;10453;50.810;12.540;2023-11-22T18:19:18;29.45;;;15.95;;
20589;SDS011;10453;50.810;12.540;2023-11-22T18:23:36;29.27;;;16.27;;
20589;SDS011;10453;50.810;12.540;2023-11-22T18:27:53;28.93;;;15.93;;
20589;SDS011;10453;50.810;12.540;2023-11-22T18:32:10;32.58;;;17.42;;
20589;SDS011;10453;50.810;12.540;2023-11-22T18:36:29;30.45;;;16.63;;
20589;SDS011;10453;50.810;12.540;2023-11-22T18:40:48;29.60;;;16.95;;
20589;SDS011;10453;50.810;12.540;2023-11-22T18:45:06;36.03;;;18.42;;
20589;SDS011;10453;50.810;12.540;2023-11-22T18:49:25;34.13;;;17.88;;
20589;SDS011;10453;50.810;12.540;2023-11-22T18:53:43;32.38;;;17.85;;
20589;SDS011;10453;50.810;12.540;2023-11-22T18:58:02;30.33;;;17.25;;
20589;SDS011;10453;50.810;12.540;2023-11-22T19:02:32;29.88;;;16.00;;
20589;SDS011;10453;50.810;12.540;2023-11-22T19:06:51;28.77;;;15.52;;
20589;SDS011;10453;50.810;12.540;2023-11-22T19:11:10;30.30;;;15.07;;
20589;SDS011;10453;50.810;12.540;2023-11-22T19:15:39;31.52;;;15.45;;
20589;SDS011;10453;50.810;12.540;2023-11-22T19:20:07;25.83;;;14.95;;
20589;SDS011;10453;50.810;12.540;2023-11-22T19:24:27;28.98;;;15.98;;
20589;SDS011;10453;50.810;12.540;2023-11-22T19:28:45;27.90;;;15.03;;
20589;SDS011;10453;50.810;12.540;2023-11-22T19:33:03;34.92;;;17.20;;
20589;SDS011;10453;50.810;12.540;2023-11-22T19:41:48;31.63;;;17.08;;
20589;SDS011;10453;50.810;12.540;2023-11-22T19:46:06;28.20;;;16.40;;
20589;SDS011;10453;50.810;12.540;2023-11-22T19:50:24;27.65;;;15.40;;
20589;SDS011;10453;50.810;12.540;2023-11-22T19:54:44;29.42;;;16.85;;
20589;SDS011;10453;50.810;12.540;2023-11-22T19:59:02;31.33;;;16.63;;
20589;SDS011;10453;50.810;12.540;2023-11-22T20:03:20;25.87;;;15.10;;
20589;SDS011;10453;50.810;12.540;2023-11-22T20:07:37;30.35;;;18.02;;
20589;SDS011;10453;50.810;12.540;2023-11-22T20:11:55;29.85;;;16.95;;
20589;SDS011;10453;50.810;12.540;2023-11-22T20:16:12;28.55;;;16.58;;
20589;SDS011;10453;50.810;12.540;2023-11-22T20:20:30;28.58;;;16.58;;
20589;SDS011;10453;50.810;12.540;2023-11-22T20:24:48;29.30;;;16.48;;
20589;SDS011;10453;50.810;12.540;2023-11-22T20:29:06;27.10;;;16.00;;
20589;SDS011;10453;50.810;12.540;2023-11-22T20:33:23;26.52;;;14.88;;
20589;SDS011;10453;50.810;12.540;2023-11-22T20:42:02;24.85;;;14.18;;
20589;SDS011;10453;50.810;12.540;2023-11-22T20:46:20;24.30;;;14.77;;
20589;SDS011;10453;50.810;12.540;2023-11-22T20:54:57;24.70;;;14.23;;
20589;SDS011;10453;50.810;12.540;2023-11-22T20:59:15;24.45;;;13.68;;
20589;SDS011;10453;50.810;12.540;2023-11-22T21:03:36;24.25;;;13.60;;
20589;SDS011;10453;50.810;12.540;2023-11-22T21:07:55;22.85;;;13.23;;
20589;SDS011;10453;50.810;12.540;2023-11-22T21:12:14;22.50;;;13.07;;
20589;SDS011;10453;50.810;12.540;2023-11-22T21:16:31;22.83;;;13.00;;
20589;SDS011;10453;50.810;12.540;2023-11-22T21:20:53;23.45;;;14.02;;
20589;SDS011;10453;50.810;12.540;2023-11-22T21:25:11;22.80;;;13.10;;
20589;SDS011;10453;50.810;12.540;2023-11-22T21:29:28;26.90;;;14.03;;
20589;SDS011;10453;50.810;12.540;2023-11-22T21:33:47;21.38;;;12.43;;
20589;SDS011;10453;50.810;12.540;2023-11-22T21:38:05;21.90;;;12.77;;
20589;SDS011;10453;50.810;12.540;2023-11-22T21:42:23;19.55;;;12.68;;
20589;SDS011;10453;50.810;12.540;2023-11-22T21:46:41;20.13;;;12.50;;
20589;SDS011;10453;50.810;12.540;2023-11-22T21:50:59;18.10;;;11.32;;
20589;SDS011;10453;50.810;12.540;2023-11-22T21:55:16;18.27;;;12.00;;
20589;SDS011;10453;50.810;12.540;2023-11-22T21:59:34;19.27;;;12.50;;
20589;SDS011;10453;50.810;12.540;2023-11-22T22:03:52;20.35;;;12.07;;
20589;SDS011;10453;50.810;12.540;2023-11-22T22:08:10;17.85;;;11.13;;
20589;SDS011;10453;50.810;12.540;2023-11-22T22:12:28;19.25;;;11.48;;
20589;SDS011;10453;50.810;12.540;2023-11-22T22:16:48;21.17;;;11.55;;
20589;SDS011;10453;50.810;12.540;2023-11-22T22:21:06;18.80;;;11.23;;
20589;SDS011;10453;50.810;12.540;2023-11-22T22:25:23;17.73;;;10.95;;
20589;SDS011;10453;50.810;12.540;2023-11-22T22:29:41;18.73;;;10.98;;
20589;SDS011;10453;50.810;12.540;2023-11-22T22:34:00;18.10;;;10.75;;
20589;SDS011;10453;50.810;12.540;2023-11-22T22:38:17;16.50;;;10.35;;
20589;SDS011;10453;50.810;12.540;2023-11-22T22:42:38;14.70;;;9.82;;
20589;SDS011;10453;50.810;12.540;2023-11-22T22:46:58;16.73;;;10.00;;
20589;SDS011;10453;50.810;12.540;2023-11-22T22:51:16;13.50;;;9.20;;
20589;SDS011;10453;50.810;12.540;2023-11-22T22:55:35;13.90;;;9.98;;
20589;SDS011;10453;50.810;12.540;2023-11-22T22:59:58;14.10;;;9.75;;
20589;SDS011;10453;50.810;12.540;2023-11-22T23:04:16;12.70;;;9.50;;
20589;SDS011;10453;50.810;12.540;2023-11-22T23:08:36;17.23;;;10.13;;
20589;SDS011;10453;50.810;12.540;2023-11-22T23:12:54;16.77;;;9.95;;
20589;SDS011;10453;50.810;12.540;2023-11-22T23:17:12;12.00;;;8.50;;
20589;SDS011;10453;50.810;12.540;2023-11-22T23:21:30;13.27;;;8.75;;
20589;SDS011;10453;50.810;12.540;2023-11-22T23:25:48;13.40;;;8.70;;
20589;SDS011;10453;50.810;12.540;2023-11-22T23:30:06;13.03;;;8.93;;
20589;SDS011;10453;50.810;12.540;2023-11-22T23:34:28;13.35;;;8.45;;
20589;SDS011;10453;50.810;12.540;2023-11-22T23:38:45;13.15;;;8.43;;
20589;SDS011;10453;50.810;12.540;2023-11-22T23:43:03;14.80;;;8.82;;
20589;SDS011;10453;50.810;12.540;2023-11-22T23:47:21;13.57;;;9.13;;
20589;SDS011;10453;50.810;12.540;2023-11-22T23:51:38;14.00;;;9.10;;
20589;SDS011;10453;50.810;12.540;2023-11-22T23:55:56;13.02;;;8.95;;
